sensor_id;sensor_type;location;lat;lon;timestamp;P1;durP1;ratioP1;P2;durP2;ratioP2
5345;SDS011;2695;49.444;11.054;2023-09-12T00:02:13;22.57;;;11.03;;
5345;SDS011;2695;49.444;11.054;2023-09-12T00:04:41;16.73;;;11.30;;
5345;SDS011;2695;49.444;11.054;2023-09-12T00:07:10;15.50;;;11.60;;
5345;SDS011;2695;49.444;11.054;2023-09-12T00:09:37;19.07;;;11.40;;
5345;SDS011;2695;49.444;11.054;2023-09-12T00:12:07;19.60;;;12.03;;
5345;SDS011;2695;49.444;11.054;2023-09-12T00:14:35;16.63;;;11.63;;
5345;SDS011;2695;49.444;11.054;2023-09-12T00:17:03;17.47;;;10.80;;
5345;SDS011;2695;49.444;11.054;2023-09-12T00:19:31;16.03;;;11.50;;
5345;SDS011;2695;49.444;11.054;2023-09-12T00:21:59;18.40;;;12.07;;
5345;SDS011;2695;49.444;11.054;2023-09-12T00:24:26;15.60;;;11.27;;
5345;SDS011;2695;49.444;11.054;2023-09-12T00:26:54;19.37;;;11.10;;
5345;SDS011;2695;49.444;11.054;2023-09-12T00:29:23;21.70;;;11.00;;
5345;SDS011;2695;49.444;11.054;2023-09-12T00:31:51;18.80;;;11.63;;
5345;SDS011;2695;49.444;11.054;2023-09-12T00:34:19;18.23;;;11.03;;
5345;SDS011;2695;49.444;11.054;2023-09-12T00:36:47;22.10;;;11.93;;
5345;SDS011;2695;49.444;11.054;2023-09-12T00:39:15;16.10;;;11.40;;
5345;SDS011;2695;49.444;11.054;2023-09-12T00:41:43;16.53;;;11.30;;
5345;SDS011;2695;49.444;11.054;2023-09-12T00:44:11;19.83;;;10.97;;
5345;SDS011;2695;49.444;11.054;2023-09-12T00:46:40;22.70;;;11.63;;
5345;SDS011;2695;49.444;11.054;2023-09-12T00:49:09;19.70;;;10.70;;
5345;SDS011;2695;49.444;11.054;2023-09-12T00:51:38;21.70;;;11.77;;
5345;SDS011;2695;49.444;11.054;2023-09-12T00:54:06;17.50;;;11.30;;
5345;SDS011;2695;49.444;11.054;2023-09-12T00:56:35;23.27;;;11.80;;
5345;SDS011;2695;49.444;11.054;2023-09-12T00:59:03;16.37;;;11.73;;
5345;SDS011;2695;49.444;11.054;2023-09-12T01:01:32;22.33;;;10.77;;
5345;SDS011;2695;49.444;11.054;2023-09-12T01:04:02;13.30;;;9.87;;
5345;SDS011;2695;49.444;11.054;2023-09-12T01:06:33;15.63;;;10.33;;
5345;SDS011;2695;49.444;11.054;2023-09-12T01:09:01;13.33;;;10.20;;
5345;SDS011;2695;49.444;11.054;2023-09-12T01:11:30;13.70;;;10.40;;
5345;SDS011;2695;49.444;11.054;2023-09-12T01:13:58;22.53;;;11.07;;
5345;SDS011;2695;49.444;11.054;2023-09-12T01:16:26;18.80;;;11.80;;
5345;SDS011;2695;49.444;11.054;2023-09-12T01:18:54;21.13;;;10.93;;
5345;SDS011;2695;49.444;11.054;2023-09-12T01:24:39;19.67;;;12.37;;
5345;SDS011;2695;49.444;11.054;2023-09-12T01:27:24;17.63;;;11.83;;
5345;SDS011;2695;49.444;11.054;2023-09-12T01:29:56;20.60;;;12.73;;
5345;SDS011;2695;49.444;11.054;2023-09-12T01:32:25;21.17;;;11.97;;
5345;SDS011;2695;49.444;11.054;2023-09-12T01:34:54;20.60;;;11.50;;
5345;SDS011;2695;49.444;11.054;2023-09-12T01:37:22;24.63;;;11.30;;
5345;SDS011;2695;49.444;11.054;2023-09-12T01:39:50;18.70;;;10.97;;
5345;SDS011;2695;49.444;11.054;2023-09-12T01:42:18;12.30;;;9.97;;
5345;SDS011;2695;49.444;11.054;2023-09-12T01:44:50;20.03;;;10.20;;
5345;SDS011;2695;49.444;11.054;2023-09-12T01:47:23;14.40;;;10.00;;
5345;SDS011;2695;49.444;11.054;2023-09-12T01:49:54;14.63;;;10.30;;
5345;SDS011;2695;49.444;11.054;2023-09-12T01:52:25;17.30;;;9.47;;
5345;SDS011;2695;49.444;11.054;2023-09-12T01:54:54;17.87;;;10.37;;
5345;SDS011;2695;49.444;11.054;2023-09-12T01:57:23;16.47;;;10.70;;
5345;SDS011;2695;49.444;11.054;2023-09-12T01:59:53;16.70;;;10.17;;
5345;SDS011;2695;49.444;11.054;2023-09-12T02:02:21;19.27;;;10.60;;
5345;SDS011;2695;49.444;11.054;2023-09-12T02:04:51;15.60;;;10.37;;
5345;SDS011;2695;49.444;11.054;2023-09-12T02:07:21;19.23;;;11.30;;
5345;SDS011;2695;49.444;11.054;2023-09-12T02:09:51;18.83;;;10.80;;
5345;SDS011;2695;49.444;11.054;2023-09-12T02:12:19;18.80;;;11.27;;
5345;SDS011;2695;49.444;11.054;2023-09-12T02:14:47;14.87;;;11.17;;
5345;SDS011;2695;49.444;11.054;2023-09-12T02:17:16;18.70;;;11.30;;
5345;SDS011;2695;49.444;11.054;2023-09-12T02:19:46;17.30;;;10.80;;
5345;SDS011;2695;49.444;11.054;2023-09-12T02:24:49;14.90;;;10.40;;
5345;SDS011;2695;49.444;11.054;2023-09-12T02:27:18;16.60;;;10.50;;
5345;SDS011;2695;49.444;11.054;2023-09-12T02:29:46;18.30;;;11.00;;
5345;SDS011;2695;49.444;11.054;2023-09-12T02:32:14;16.43;;;9.30;;
5345;SDS011;2695;49.444;11.054;2023-09-12T02:34:44;23.83;;;10.50;;
5345;SDS011;2695;49.444;11.054;2023-09-12T02:37:17;13.70;;;10.07;;
5345;SDS011;2695;49.444;11.054;2023-09-12T02:39:45;17.97;;;11.67;;
5345;SDS011;2695;49.444;11.054;2023-09-12T02:42:13;15.90;;;9.70;;
5345;SDS011;2695;49.444;11.054;2023-09-12T02:44:41;17.63;;;12.30;;
5345;SDS011;2695;49.444;11.054;2023-09-12T02:47:09;16.03;;;11.30;;
5345;SDS011;2695;49.444;11.054;2023-09-12T02:49:37;15.70;;;11.93;;
5345;SDS011;2695;49.444;11.054;2023-09-12T02:52:07;25.20;;;11.10;;
5345;SDS011;2695;49.444;11.054;2023-09-12T02:54:35;18.33;;;10.53;;
5345;SDS011;2695;49.444;11.054;2023-09-12T02:57:03;21.03;;;11.73;;
5345;SDS011;2695;49.444;11.054;2023-09-12T02:59:31;19.33;;;11.70;;
5345;SDS011;2695;49.444;11.054;2023-09-12T03:01:59;22.20;;;11.77;;
5345;SDS011;2695;49.444;11.054;2023-09-12T03:04:29;17.23;;;11.30;;
5345;SDS011;2695;49.444;11.054;2023-09-12T03:06:57;19.83;;;11.87;;
5345;SDS011;2695;49.444;11.054;2023-09-12T03:09:26;15.50;;;11.57;;
5345;SDS011;2695;49.444;11.054;2023-09-12T03:12:00;17.23;;;12.10;;
5345;SDS011;2695;49.444;11.054;2023-09-12T03:14:30;19.37;;;11.43;;
5345;SDS011;2695;49.444;11.054;2023-09-12T03:16:59;19.87;;;11.43;;
5345;SDS011;2695;49.444;11.054;2023-09-12T03:22:19;17.53;;;11.83;;
5345;SDS011;2695;49.444;11.054;2023-09-12T03:24:49;24.00;;;12.87;;
5345;SDS011;2695;49.444;11.054;2023-09-12T03:27:17;22.40;;;13.80;;
5345;SDS011;2695;49.444;11.054;2023-09-12T03:29:46;23.03;;;14.43;;
5345;SDS011;2695;49.444;11.054;2023-09-12T03:32:14;25.20;;;13.27;;
5345;SDS011;2695;49.444;11.054;2023-09-12T03:34:42;22.97;;;11.60;;
5345;SDS011;2695;49.444;11.054;2023-09-12T03:37:10;22.80;;;12.00;;
5345;SDS011;2695;49.444;11.054;2023-09-12T03:39:39;19.33;;;11.57;;
5345;SDS011;2695;49.444;11.054;2023-09-12T03:42:08;17.00;;;11.33;;
5345;SDS011;2695;49.444;11.054;2023-09-12T03:44:36;22.10;;;12.33;;
5345;SDS011;2695;49.444;11.054;2023-09-12T03:47:05;16.40;;;11.20;;
5345;SDS011;2695;49.444;11.054;2023-09-12T03:49:33;21.50;;;11.40;;
5345;SDS011;2695;49.444;11.054;2023-09-12T03:52:02;19.73;;;11.03;;
5345;SDS011;2695;49.444;11.054;2023-09-12T03:54:31;14.97;;;11.17;;
5345;SDS011;2695;49.444;11.054;2023-09-12T03:57:00;14.67;;;10.70;;
5345;SDS011;2695;49.444;11.054;2023-09-12T03:59:29;25.27;;;11.37;;
5345;SDS011;2695;49.444;11.054;2023-09-12T04:01:57;14.90;;;9.53;;
5345;SDS011;2695;49.444;11.054;2023-09-12T04:04:28;17.50;;;9.90;;
5345;SDS011;2695;49.444;11.054;2023-09-12T04:10:48;17.90;;;10.47;;
5345;SDS011;2695;49.444;11.054;2023-09-12T04:13:16;17.87;;;11.67;;
5345;SDS011;2695;49.444;11.054;2023-09-12T04:15:46;21.07;;;11.57;;
5345;SDS011;2695;49.444;11.054;2023-09-12T04:21:21;18.53;;;13.90;;
5345;SDS011;2695;49.444;11.054;2023-09-12T04:23:50;21.53;;;13.27;;
5345;SDS011;2695;49.444;11.054;2023-09-12T04:26:24;14.63;;;11.77;;
5345;SDS011;2695;49.444;11.054;2023-09-12T04:28:52;15.07;;;10.80;;
5345;SDS011;2695;49.444;11.054;2023-09-12T04:31:21;13.57;;;10.03;;
5345;SDS011;2695;49.444;11.054;2023-09-12T04:33:50;17.50;;;10.97;;
5345;SDS011;2695;49.444;11.054;2023-09-12T04:36:18;15.83;;;11.40;;
5345;SDS011;2695;49.444;11.054;2023-09-12T04:38:47;23.60;;;12.50;;
5345;SDS011;2695;49.444;11.054;2023-09-12T04:41:15;20.03;;;11.33;;
5345;SDS011;2695;49.444;11.054;2023-09-12T04:43:43;16.07;;;10.97;;
5345;SDS011;2695;49.444;11.054;2023-09-12T04:46:11;15.67;;;11.53;;
5345;SDS011;2695;49.444;11.054;2023-09-12T04:48:47;18.27;;;11.63;;
5345;SDS011;2695;49.444;11.054;2023-09-12T04:51:16;22.30;;;12.70;;
5345;SDS011;2695;49.444;11.054;2023-09-12T04:53:44;19.13;;;12.10;;
5345;SDS011;2695;49.444;11.054;2023-09-12T04:56:17;21.67;;;12.23;;
5345;SDS011;2695;49.444;11.054;2023-09-12T04:58:46;17.93;;;12.03;;
5345;SDS011;2695;49.444;11.054;2023-09-12T05:01:14;26.03;;;11.20;;
5345;SDS011;2695;49.444;11.054;2023-09-12T05:03:43;16.63;;;11.30;;
5345;SDS011;2695;49.444;11.054;2023-09-12T05:06:13;20.83;;;10.67;;
5345;SDS011;2695;49.444;11.054;2023-09-12T05:08:41;16.40;;;10.20;;
5345;SDS011;2695;49.444;11.054;2023-09-12T05:11:10;22.10;;;11.20;;
5345;SDS011;2695;49.444;11.054;2023-09-12T05:13:38;16.63;;;11.77;;
5345;SDS011;2695;49.444;11.054;2023-09-12T05:21:48;19.00;;;11.87;;
5345;SDS011;2695;49.444;11.054;2023-09-12T05:24:16;22.30;;;11.20;;
5345;SDS011;2695;49.444;11.054;2023-09-12T05:30:00;19.00;;;10.37;;
5345;SDS011;2695;49.444;11.054;2023-09-12T05:32:28;16.23;;;10.33;;
5345;SDS011;2695;49.444;11.054;2023-09-12T05:34:57;15.83;;;11.73;;
5345;SDS011;2695;49.444;11.054;2023-09-12T05:37:42;15.18;;;11.13;;
5345;SDS011;2695;49.444;11.054;2023-09-12T05:40:10;16.13;;;11.53;;
5345;SDS011;2695;49.444;11.054;2023-09-12T05:42:38;19.02;;;11.13;;
5345;SDS011;2695;49.444;11.054;2023-09-12T05:45:07;17.85;;;10.52;;
5345;SDS011;2695;49.444;11.054;2023-09-12T05:47:36;16.35;;;10.15;;
5345;SDS011;2695;49.444;11.054;2023-09-12T05:50:05;16.60;;;10.60;;
5345;SDS011;2695;49.444;11.054;2023-09-12T05:52:34;18.08;;;10.57;;
5345;SDS011;2695;49.444;11.054;2023-09-12T05:55:04;18.23;;;9.80;;
5345;SDS011;2695;49.444;11.054;2023-09-12T05:57:33;21.05;;;10.90;;
5345;SDS011;2695;49.444;11.054;2023-09-12T06:00:02;16.75;;;11.38;;
5345;SDS011;2695;49.444;11.054;2023-09-12T06:02:31;20.67;;;11.32;;
5345;SDS011;2695;49.444;11.054;2023-09-12T06:05:00;15.10;;;10.40;;
5345;SDS011;2695;49.444;11.054;2023-09-12T06:07:29;17.42;;;9.98;;
5345;SDS011;2695;49.444;11.054;2023-09-12T06:09:58;14.55;;;9.40;;
5345;SDS011;2695;49.444;11.054;2023-09-12T06:12:28;17.92;;;8.95;;
5345;SDS011;2695;49.444;11.054;2023-09-12T06:14:59;13.93;;;10.02;;
5345;SDS011;2695;49.444;11.054;2023-09-12T06:17:28;17.55;;;11.27;;
5345;SDS011;2695;49.444;11.054;2023-09-12T06:19:56;20.65;;;11.50;;
5345;SDS011;2695;49.444;11.054;2023-09-12T06:22:24;16.27;;;10.95;;
5345;SDS011;2695;49.444;11.054;2023-09-12T06:24:53;18.45;;;10.55;;
5345;SDS011;2695;49.444;11.054;2023-09-12T06:27:21;17.27;;;10.90;;
5345;SDS011;2695;49.444;11.054;2023-09-12T06:29:51;14.30;;;11.48;;
5345;SDS011;2695;49.444;11.054;2023-09-12T06:32:19;16.85;;;10.60;;
5345;SDS011;2695;49.444;11.054;2023-09-12T06:34:47;21.90;;;10.65;;
5345;SDS011;2695;49.444;11.054;2023-09-12T06:37:16;20.15;;;10.35;;
5345;SDS011;2695;49.444;11.054;2023-09-12T06:39:45;17.33;;;11.02;;
5345;SDS011;2695;49.444;11.054;2023-09-12T06:42:22;13.75;;;10.00;;
5345;SDS011;2695;49.444;11.054;2023-09-12T06:44:51;21.95;;;9.95;;
5345;SDS011;2695;49.444;11.054;2023-09-12T06:47:19;14.00;;;9.40;;
5345;SDS011;2695;49.444;11.054;2023-09-12T06:49:47;20.60;;;9.70;;
5345;SDS011;2695;49.444;11.054;2023-09-12T06:52:21;16.58;;;10.07;;
5345;SDS011;2695;49.444;11.054;2023-09-12T06:54:49;11.00;;;8.60;;
5345;SDS011;2695;49.444;11.054;2023-09-12T06:57:17;21.90;;;9.18;;
5345;SDS011;2695;49.444;11.054;2023-09-12T06:59:45;14.95;;;8.93;;
5345;SDS011;2695;49.444;11.054;2023-09-12T07:02:16;15.90;;;9.30;;
5345;SDS011;2695;49.444;11.054;2023-09-12T07:04:45;12.38;;;7.93;;
5345;SDS011;2695;49.444;11.054;2023-09-12T07:07:13;10.30;;;8.15;;
5345;SDS011;2695;49.444;11.054;2023-09-12T07:09:41;10.38;;;9.13;;
5345;SDS011;2695;49.444;11.054;2023-09-12T07:12:09;10.90;;;9.70;;
5345;SDS011;2695;49.444;11.054;2023-09-12T07:14:37;12.98;;;10.45;;
5345;SDS011;2695;49.444;11.054;2023-09-12T07:17:05;14.45;;;10.25;;
5345;SDS011;2695;49.444;11.054;2023-09-12T07:19:35;16.40;;;10.48;;
5345;SDS011;2695;49.444;11.054;2023-09-12T07:22:04;15.95;;;9.55;;
5345;SDS011;2695;49.444;11.054;2023-09-12T07:24:32;18.65;;;9.77;;
5345;SDS011;2695;49.444;11.054;2023-09-12T07:27:00;15.48;;;10.52;;
5345;SDS011;2695;49.444;11.054;2023-09-12T07:29:28;14.60;;;11.23;;
5345;SDS011;2695;49.444;11.054;2023-09-12T07:31:55;13.50;;;8.85;;
5345;SDS011;2695;49.444;11.054;2023-09-12T07:34:26;14.48;;;9.70;;
5345;SDS011;2695;49.444;11.054;2023-09-12T07:36:55;15.00;;;10.32;;
5345;SDS011;2695;49.444;11.054;2023-09-12T07:39:23;20.40;;;11.20;;
5345;SDS011;2695;49.444;11.054;2023-09-12T07:41:52;13.70;;;10.30;;
5345;SDS011;2695;49.444;11.054;2023-09-12T07:44:19;19.15;;;10.45;;
5345;SDS011;2695;49.444;11.054;2023-09-12T07:46:47;15.35;;;9.43;;
5345;SDS011;2695;49.444;11.054;2023-09-12T07:49:15;12.68;;;8.77;;
5345;SDS011;2695;49.444;11.054;2023-09-12T07:51:43;15.55;;;10.07;;
5345;SDS011;2695;49.444;11.054;2023-09-12T07:54:13;31.58;;;11.98;;
5345;SDS011;2695;49.444;11.054;2023-09-12T07:56:41;24.00;;;10.80;;
5345;SDS011;2695;49.444;11.054;2023-09-12T07:59:09;20.23;;;10.13;;
5345;SDS011;2695;49.444;11.054;2023-09-12T08:01:38;24.40;;;10.40;;
5345;SDS011;2695;49.444;11.054;2023-09-12T08:04:06;12.85;;;8.77;;
5345;SDS011;2695;49.444;11.054;2023-09-12T08:06:35;14.68;;;9.07;;
5345;SDS011;2695;49.444;11.054;2023-09-12T08:09:23;15.48;;;9.85;;
5345;SDS011;2695;49.444;11.054;2023-09-12T08:12:13;13.90;;;9.23;;
5345;SDS011;2695;49.444;11.054;2023-09-12T08:14:41;15.43;;;9.15;;
5345;SDS011;2695;49.444;11.054;2023-09-12T08:17:09;15.27;;;9.05;;
5345;SDS011;2695;49.444;11.054;2023-09-12T08:19:37;21.13;;;8.18;;
5345;SDS011;2695;49.444;11.054;2023-09-12T08:22:05;16.85;;;8.52;;
5345;SDS011;2695;49.444;11.054;2023-09-12T08:24:34;12.07;;;8.25;;
5345;SDS011;2695;49.444;11.054;2023-09-12T08:27:02;13.38;;;8.65;;
5345;SDS011;2695;49.444;11.054;2023-09-12T08:29:32;17.60;;;8.52;;
5345;SDS011;2695;49.444;11.054;2023-09-12T08:32:01;13.32;;;7.43;;
5345;SDS011;2695;49.444;11.054;2023-09-12T08:34:29;11.15;;;7.82;;
5345;SDS011;2695;49.444;11.054;2023-09-12T08:36:57;7.70;;;6.85;;
5345;SDS011;2695;49.444;11.054;2023-09-12T08:39:26;12.18;;;8.23;;
5345;SDS011;2695;49.444;11.054;2023-09-12T08:41:55;10.32;;;7.60;;
5345;SDS011;2695;49.444;11.054;2023-09-12T08:44:23;11.48;;;7.78;;
5345;SDS011;2695;49.444;11.054;2023-09-12T08:46:52;11.93;;;8.15;;
5345;SDS011;2695;49.444;11.054;2023-09-12T08:49:20;12.38;;;7.70;;
5345;SDS011;2695;49.444;11.054;2023-09-12T08:51:50;14.48;;;7.57;;
5345;SDS011;2695;49.444;11.054;2023-09-12T08:54:18;16.13;;;7.70;;
5345;SDS011;2695;49.444;11.054;2023-09-12T08:56:46;16.05;;;8.75;;
5345;SDS011;2695;49.444;11.054;2023-09-12T08:59:14;13.88;;;8.00;;
5345;SDS011;2695;49.444;11.054;2023-09-12T09:01:43;12.57;;;8.60;;
5345;SDS011;2695;49.444;11.054;2023-09-12T09:04:14;12.07;;;8.70;;
5345;SDS011;2695;49.444;11.054;2023-09-12T09:06:42;12.02;;;8.50;;
5345;SDS011;2695;49.444;11.054;2023-09-12T09:09:10;8.40;;;7.55;;
5345;SDS011;2695;49.444;11.054;2023-09-12T09:11:38;10.23;;;7.25;;
5345;SDS011;2695;49.444;11.054;2023-09-12T09:14:08;7.80;;;6.90;;
5345;SDS011;2695;49.444;11.054;2023-09-12T09:16:36;13.00;;;7.57;;
5345;SDS011;2695;49.444;11.054;2023-09-12T09:19:05;11.43;;;7.25;;
5345;SDS011;2695;49.444;11.054;2023-09-12T09:21:38;12.95;;;7.65;;
5345;SDS011;2695;49.444;11.054;2023-09-12T09:24:08;10.32;;;8.13;;
5345;SDS011;2695;49.444;11.054;2023-09-12T09:26:43;7.90;;;6.90;;
5345;SDS011;2695;49.444;11.054;2023-09-12T09:29:13;12.00;;;7.60;;
5345;SDS011;2695;49.444;11.054;2023-09-12T09:31:43;10.10;;;7.15;;
5345;SDS011;2695;49.444;11.054;2023-09-12T09:34:13;8.80;;;7.20;;
5345;SDS011;2695;49.444;11.054;2023-09-12T09:36:46;13.27;;;7.60;;
5345;SDS011;2695;49.444;11.054;2023-09-12T09:39:15;11.13;;;7.72;;
5345;SDS011;2695;49.444;11.054;2023-09-12T09:41:46;9.30;;;7.25;;
5345;SDS011;2695;49.444;11.054;2023-09-12T09:44:15;11.73;;;6.85;;
5345;SDS011;2695;49.444;11.054;2023-09-12T09:46:54;13.90;;;7.75;;
5345;SDS011;2695;49.444;11.054;2023-09-12T09:49:22;11.95;;;7.32;;
5345;SDS011;2695;49.444;11.054;2023-09-12T09:51:52;9.90;;;7.82;;
5345;SDS011;2695;49.444;11.054;2023-09-12T09:54:23;17.45;;;7.75;;
5345;SDS011;2695;49.444;11.054;2023-09-12T09:56:53;9.48;;;8.02;;
5345;SDS011;2695;49.444;11.054;2023-09-12T09:59:22;12.10;;;7.40;;
5345;SDS011;2695;49.444;11.054;2023-09-12T10:01:52;13.63;;;8.02;;
5345;SDS011;2695;49.444;11.054;2023-09-12T10:04:23;11.65;;;8.05;;
5345;SDS011;2695;49.444;11.054;2023-09-12T10:06:58;18.30;;;7.68;;
5345;SDS011;2695;49.444;11.054;2023-09-12T10:09:28;11.88;;;7.85;;
5345;SDS011;2695;49.444;11.054;2023-09-12T10:11:59;10.05;;;7.07;;
5345;SDS011;2695;49.444;11.054;2023-09-12T10:14:27;10.30;;;7.30;;
5345;SDS011;2695;49.444;11.054;2023-09-12T10:17:00;13.50;;;8.43;;
5345;SDS011;2695;49.444;11.054;2023-09-12T10:19:35;14.18;;;8.00;;
5345;SDS011;2695;49.444;11.054;2023-09-12T10:22:09;10.00;;;7.38;;
5345;SDS011;2695;49.444;11.054;2023-09-12T10:24:42;15.88;;;8.05;;
5345;SDS011;2695;49.444;11.054;2023-09-12T10:27:12;13.18;;;8.60;;
5345;SDS011;2695;49.444;11.054;2023-09-12T10:29:41;8.90;;;7.75;;
5345;SDS011;2695;49.444;11.054;2023-09-12T10:32:14;11.07;;;8.77;;
5345;SDS011;2695;49.444;11.054;2023-09-12T10:34:42;15.90;;;8.45;;
5345;SDS011;2695;49.444;11.054;2023-09-12T10:37:15;9.57;;;8.23;;
5345;SDS011;2695;49.444;11.054;2023-09-12T10:39:44;8.80;;;7.85;;
5345;SDS011;2695;49.444;11.054;2023-09-12T10:42:13;12.13;;;7.63;;
5345;SDS011;2695;49.444;11.054;2023-09-12T10:44:44;9.57;;;7.70;;
5345;SDS011;2695;49.444;11.054;2023-09-12T10:47:13;10.73;;;8.20;;
5345;SDS011;2695;49.444;11.054;2023-09-12T10:49:43;8.40;;;7.45;;
5345;SDS011;2695;49.444;11.054;2023-09-12T10:52:11;10.02;;;7.47;;
5345;SDS011;2695;49.444;11.054;2023-09-12T10:54:53;7.80;;;7.10;;
5345;SDS011;2695;49.444;11.054;2023-09-12T10:57:21;9.15;;;8.15;;
5345;SDS011;2695;49.444;11.054;2023-09-12T11:00:09;8.93;;;7.53;;
5345;SDS011;2695;49.444;11.054;2023-09-12T11:02:39;10.02;;;8.02;;
5345;SDS011;2695;49.444;11.054;2023-09-12T11:08:13;11.93;;;8.68;;
5345;SDS011;2695;49.444;11.054;2023-09-12T11:10:41;10.38;;;8.70;;
5345;SDS011;2695;49.444;11.054;2023-09-12T11:13:10;10.50;;;7.60;;
5345;SDS011;2695;49.444;11.054;2023-09-12T11:18:46;9.68;;;8.35;;
5345;SDS011;2695;49.444;11.054;2023-09-12T11:21:39;10.60;;;7.18;;
5345;SDS011;2695;49.444;11.054;2023-09-12T11:24:09;9.25;;;7.20;;
5345;SDS011;2695;49.444;11.054;2023-09-12T11:26:51;14.57;;;8.07;;
5345;SDS011;2695;49.444;11.054;2023-09-12T11:29:21;8.18;;;6.15;;
5345;SDS011;2695;49.444;11.054;2023-09-12T11:34:55;13.52;;;7.90;;
5345;SDS011;2695;49.444;11.054;2023-09-12T11:37:23;8.98;;;7.28;;
5345;SDS011;2695;49.444;11.054;2023-09-12T11:39:54;9.10;;;7.30;;
5345;SDS011;2695;49.444;11.054;2023-09-12T11:42:24;11.60;;;7.60;;
5345;SDS011;2695;49.444;11.054;2023-09-12T11:44:52;11.40;;;7.82;;
5345;SDS011;2695;49.444;11.054;2023-09-12T11:47:20;11.15;;;6.72;;
5345;SDS011;2695;49.444;11.054;2023-09-12T11:49:49;18.80;;;7.85;;
5345;SDS011;2695;49.444;11.054;2023-09-12T11:52:17;10.30;;;8.05;;
5345;SDS011;2695;49.444;11.054;2023-09-12T11:54:46;9.20;;;7.80;;
5345;SDS011;2695;49.444;11.054;2023-09-12T11:57:16;13.32;;;7.72;;
5345;SDS011;2695;49.444;11.054;2023-09-12T11:59:44;10.85;;;6.68;;
5345;SDS011;2695;49.444;11.054;2023-09-12T12:02:15;10.50;;;7.80;;
5345;SDS011;2695;49.444;11.054;2023-09-12T12:04:43;9.32;;;7.63;;
5345;SDS011;2695;49.444;11.054;2023-09-12T12:07:12;12.40;;;8.13;;
5345;SDS011;2695;49.444;11.054;2023-09-12T12:09:40;10.38;;;7.20;;
5345;SDS011;2695;49.444;11.054;2023-09-12T12:12:10;12.77;;;8.45;;
5345;SDS011;2695;49.444;11.054;2023-09-12T12:14:41;8.93;;;7.70;;
5345;SDS011;2695;49.444;11.054;2023-09-12T12:17:11;10.70;;;6.85;;
5345;SDS011;2695;49.444;11.054;2023-09-12T12:19:44;9.10;;;6.80;;
5345;SDS011;2695;49.444;11.054;2023-09-12T12:22:13;9.80;;;6.68;;
5345;SDS011;2695;49.444;11.054;2023-09-12T12:24:42;12.15;;;7.22;;
5345;SDS011;2695;49.444;11.054;2023-09-12T12:27:14;10.05;;;6.82;;
5345;SDS011;2695;49.444;11.054;2023-09-12T12:29:43;12.60;;;7.18;;
5345;SDS011;2695;49.444;11.054;2023-09-12T12:32:14;9.38;;;6.18;;
5345;SDS011;2695;49.444;11.054;2023-09-12T12:34:47;10.02;;;6.60;;
5345;SDS011;2695;49.444;11.054;2023-09-12T12:37:36;8.30;;;7.22;;
5345;SDS011;2695;49.444;11.054;2023-09-12T12:40:05;10.77;;;7.35;;
5345;SDS011;2695;49.444;11.054;2023-09-12T12:42:39;11.70;;;7.53;;
5345;SDS011;2695;49.444;11.054;2023-09-12T12:45:21;8.68;;;6.60;;
5345;SDS011;2695;49.444;11.054;2023-09-12T12:47:51;13.23;;;6.90;;
5345;SDS011;2695;49.444;11.054;2023-09-12T12:50:19;11.02;;;6.90;;
5345;SDS011;2695;49.444;11.054;2023-09-12T12:52:48;10.88;;;7.32;;
5345;SDS011;2695;49.444;11.054;2023-09-12T12:55:16;13.75;;;7.50;;
5345;SDS011;2695;49.444;11.054;2023-09-12T12:57:47;7.80;;;6.30;;
5345;SDS011;2695;49.444;11.054;2023-09-12T13:00:16;12.73;;;6.82;;
5345;SDS011;2695;49.444;11.054;2023-09-12T13:02:46;18.58;;;7.78;;
5345;SDS011;2695;49.444;11.054;2023-09-12T13:05:21;10.55;;;6.80;;
5345;SDS011;2695;49.444;11.054;2023-09-12T13:07:51;7.63;;;6.13;;
5345;SDS011;2695;49.444;11.054;2023-09-12T13:10:19;10.88;;;6.18;;
5345;SDS011;2695;49.444;11.054;2023-09-12T13:12:48;16.75;;;6.60;;
5345;SDS011;2695;49.444;11.054;2023-09-12T13:15:17;13.05;;;6.53;;
5345;SDS011;2695;49.444;11.054;2023-09-12T13:17:47;10.38;;;7.53;;
5345;SDS011;2695;49.444;11.054;2023-09-12T13:20:15;10.13;;;6.93;;
5345;SDS011;2695;49.444;11.054;2023-09-12T13:22:44;7.32;;;6.20;;
5345;SDS011;2695;49.444;11.054;2023-09-12T13:25:12;12.65;;;6.55;;
5345;SDS011;2695;49.444;11.054;2023-09-12T13:27:41;9.80;;;6.63;;
5345;SDS011;2695;49.444;11.054;2023-09-12T13:30:09;7.38;;;5.72;;
5345;SDS011;2695;49.444;11.054;2023-09-12T13:32:38;9.30;;;6.45;;
5345;SDS011;2695;49.444;11.054;2023-09-12T13:35:07;8.18;;;6.82;;
5345;SDS011;2695;49.444;11.054;2023-09-12T13:37:36;9.95;;;6.70;;
5345;SDS011;2695;49.444;11.054;2023-09-12T13:40:04;9.98;;;6.75;;
5345;SDS011;2695;49.444;11.054;2023-09-12T13:42:35;9.23;;;6.65;;
5345;SDS011;2695;49.444;11.054;2023-09-12T13:45:04;10.43;;;6.72;;
5345;SDS011;2695;49.444;11.054;2023-09-12T13:47:33;9.45;;;7.00;;
5345;SDS011;2695;49.444;11.054;2023-09-12T13:50:02;8.45;;;6.05;;
5345;SDS011;2695;49.444;11.054;2023-09-12T13:52:48;7.15;;;6.20;;
5345;SDS011;2695;49.444;11.054;2023-09-12T13:55:15;9.75;;;6.93;;
5345;SDS011;2695;49.444;11.054;2023-09-12T13:58:04;13.07;;;6.80;;
5345;SDS011;2695;49.444;11.054;2023-09-12T14:00:33;7.90;;;6.60;;
5345;SDS011;2695;49.444;11.054;2023-09-12T14:03:03;10.13;;;7.22;;
5345;SDS011;2695;49.444;11.054;2023-09-12T14:05:32;10.25;;;5.80;;
5345;SDS011;2695;49.444;11.054;2023-09-12T14:08:02;16.10;;;6.85;;
5345;SDS011;2695;49.444;11.054;2023-09-12T14:10:30;12.68;;;6.78;;
5345;SDS011;2695;49.444;11.054;2023-09-12T14:13:04;17.30;;;7.47;;
5345;SDS011;2695;49.444;11.054;2023-09-12T14:15:47;13.63;;;6.90;;
5345;SDS011;2695;49.444;11.054;2023-09-12T14:18:17;11.40;;;6.40;;
5345;SDS011;2695;49.444;11.054;2023-09-12T14:20:47;11.80;;;7.15;;
5345;SDS011;2695;49.444;11.054;2023-09-12T14:23:18;15.73;;;7.20;;
5345;SDS011;2695;49.444;11.054;2023-09-12T14:25:47;10.45;;;6.63;;
5345;SDS011;2695;49.444;11.054;2023-09-12T14:28:16;9.52;;;6.65;;
5345;SDS011;2695;49.444;11.054;2023-09-12T14:30:44;8.95;;;6.93;;
5345;SDS011;2695;49.444;11.054;2023-09-12T14:37:04;18.48;;;8.65;;
5345;SDS011;2695;49.444;11.054;2023-09-12T14:39:34;10.38;;;6.55;;
5345;SDS011;2695;49.444;11.054;2023-09-12T14:42:02;7.82;;;6.43;;
5345;SDS011;2695;49.444;11.054;2023-09-12T14:44:34;13.90;;;7.38;;
5345;SDS011;2695;49.444;11.054;2023-09-12T14:47:03;9.93;;;7.00;;
5345;SDS011;2695;49.444;11.054;2023-09-12T14:49:31;6.70;;;5.97;;
5345;SDS011;2695;49.444;11.054;2023-09-12T14:52:09;12.10;;;6.93;;
5345;SDS011;2695;49.444;11.054;2023-09-12T14:54:50;9.13;;;7.15;;
5345;SDS011;2695;49.444;11.054;2023-09-12T14:57:18;9.13;;;7.72;;
5345;SDS011;2695;49.444;11.054;2023-09-12T14:59:50;9.20;;;6.78;;
5345;SDS011;2695;49.444;11.054;2023-09-12T15:02:18;13.63;;;6.50;;
5345;SDS011;2695;49.444;11.054;2023-09-12T15:04:47;7.95;;;6.60;;
5345;SDS011;2695;49.444;11.054;2023-09-12T15:07:17;8.30;;;6.93;;
5345;SDS011;2695;49.444;11.054;2023-09-12T15:09:45;7.10;;;6.30;;
5345;SDS011;2695;49.444;11.054;2023-09-12T15:12:14;11.27;;;5.75;;
5345;SDS011;2695;49.444;11.054;2023-09-12T15:14:42;8.52;;;6.50;;
5345;SDS011;2695;49.444;11.054;2023-09-12T15:17:10;9.35;;;5.95;;
5345;SDS011;2695;49.444;11.054;2023-09-12T15:19:38;10.35;;;6.80;;
5345;SDS011;2695;49.444;11.054;2023-09-12T15:25:11;7.47;;;6.47;;
5345;SDS011;2695;49.444;11.054;2023-09-12T15:27:59;12.00;;;6.50;;
5345;SDS011;2695;49.444;11.054;2023-09-12T15:30:27;6.60;;;5.90;;
5345;SDS011;2695;49.444;11.054;2023-09-12T15:32:55;10.20;;;6.28;;
5345;SDS011;2695;49.444;11.054;2023-09-12T15:35:24;12.05;;;6.60;;
5345;SDS011;2695;49.444;11.054;2023-09-12T15:37:52;8.13;;;6.35;;
5345;SDS011;2695;49.444;11.054;2023-09-12T15:40:20;8.57;;;6.45;;